< < Back
Terminal Aerodrome Forecast


Current Version              Previous Versions:   1  2  3  4  5  6  7  8  9  

Terminal Aerodrome Forecast

680
FTUS42 KTAE 181700
TAFVLD
TAF
KVLD 181720Z 1818/1918 32003KT P6SM SCT250
     FM190200 00000KT P6SM BKN250
     FM190900 00000KT 4SM BR OVC007
     FM191400 12004KT P6SM BKN250=



Latest METAR

825
SAUS70 KWBC 190700 RRA
MTRVLD
METAR KVLD 190653Z AUTO 00000KT 10SM CLR 22/20 A2995 RMK AO2 SLP147
T02220200


USA.gov is the U.S. government's official web portal to all federal, state and local government web resources and services.